Aérodrome :







RETROUVEZ-NOUS SUR...

 
LOGIN :

S'inscrire | Disclaimer

   EN    FR    IT 

 









Légende :    VFR   VFR Marginal   IFR   IFR Intensif   IFR Très Intensif
Visi : 
Plafond : 
>= 8 km
>= 3000ft
5 à 8 km
1000 à 3000 ft
1500m à 5 km
500 à 1000 ft
800 à 1500m
200 à 500 ft
< 800m
< 200 ft
Symboles :   Orages  Brouillard  Fortes neiges  Fortes précipitations  Vent > 20 kt






- Altitude de l'aérodrome : 198 ft
- Code IATA : STM


SBSN - Maestro Wilson Fonseca Int.

DERNIER METAR :
  • 241100Z 08011KT CAVOK 28/24 Q1013

METARs EXPIRÉS :
  • 241000Z 08010KT CAVOK 28/24 Q1012
  • 240900Z 08008KT CAVOK 27/24 Q1012

TAF TAF SBSN
Valide du 24 à 12h jusqu'au 25 à 12h UTC


240900Z 2412/2512 13010KT 9999 FEW015 TX32/2417Z TN27/2508Z
BECMG 2414/2416 09010KT FEW020
BECMG 2421/2423 15005KT
BECMG 2502/2504 15005KT CAVOK
BECMG 2508/2510 09010KT FEW015 RMK PGY
FIR SBAZ / Amérique du Sud



MET'MAP, la Météo Aéronautique d'un coup d'oeil ! - Copyright ORBIFLY Décembre 2007 - Disclaimer

ORBIFLY MET'MAP TEAM :

Programmation & Développement : Alexandra Zaïnal
Sur une idée originale de : Baudouin d'Aumeries
Assistance à la programmation : Marc-Olivier Méhu
Soutien technique & logistique : Manuel Goepfert

Contact : metmap@orbifly.com




SOURCES & CREDITS :

   NOAA